sensor_id;sensor_type;location;lat;lon;timestamp;pressure;altitude;pressure_sealevel;temperature;humidity
13869;BME280;7004;48.206;16.402;2023-06-14T00:01:06;99430.75;;;16.42;65.04
13869;BME280;7004;48.206;16.402;2023-06-14T00:03:35;99429.09;;;16.50;64.16
13869;BME280;7004;48.206;16.402;2023-06-14T00:06:03;99432.06;;;16.37;64.80
13869;BME280;7004;48.206;16.402;2023-06-14T00:08:30;99436.66;;;16.26;65.56
13869;BME280;7004;48.206;16.402;2023-06-14T00:10:56;99437.66;;;16.34;64.91
13869;BME280;7004;48.206;16.402;2023-06-14T00:13:22;99441.31;;;16.14;65.35
13869;BME280;7004;48.206;16.402;2023-06-14T00:15:49;99440.34;;;16.25;64.87
13869;BME280;7004;48.206;16.402;2023-06-14T00:18:15;99439.63;;;16.32;65.54
13869;BME280;7004;48.206;16.402;2023-06-14T00:20:42;99438.50;;;16.06;65.81
13869;BME280;7004;48.206;16.402;2023-06-14T00:23:08;99441.56;;;15.91;68.07
13869;BME280;7004;48.206;16.402;2023-06-14T00:25:35;99438.22;;;16.09;66.59
13869;BME280;7004;48.206;16.402;2023-06-14T00:28:01;99441.44;;;16.03;67.39
13869;BME280;7004;48.206;16.402;2023-06-14T00:30:27;99432.03;;;15.99;67.83
13869;BME280;7004;48.206;16.402;2023-06-14T00:32:56;99437.81;;;16.04;68.73
13869;BME280;7004;48.206;16.402;2023-06-14T00:35:24;99441.19;;;16.06;68.44
13869;BME280;7004;48.206;16.402;2023-06-14T00:37:51;99433.56;;;15.91;68.89
13869;BME280;7004;48.206;16.402;2023-06-14T00:40:17;99425.69;;;15.90;69.25
13869;BME280;7004;48.206;16.402;2023-06-14T00:42:43;99430.59;;;15.85;68.87
13869;BME280;7004;48.206;16.402;2023-06-14T00:45:10;99430.06;;;15.81;69.68
13869;BME280;7004;48.206;16.402;2023-06-14T00:47:38;99429.09;;;15.42;71.00
13869;BME280;7004;48.206;16.402;2023-06-14T00:50:07;99443.75;;;15.26;72.19
13869;BME280;7004;48.206;16.402;2023-06-14T00:52:34;99434.88;;;15.16;72.14
13869;BME280;7004;48.206;16.402;2023-06-14T00:55:00;99430.31;;;14.97;73.11
13869;BME280;7004;48.206;16.402;2023-06-14T00:57:27;99427.94;;;14.94;72.67
13869;BME280;7004;48.206;16.402;2023-06-14T00:59:55;99424.78;;;15.10;72.00
13869;BME280;7004;48.206;16.402;2023-06-14T01:02:21;99426.66;;;15.29;71.43
13869;BME280;7004;48.206;16.402;2023-06-14T01:04:49;99422.31;;;15.28;71.44
13869;BME280;7004;48.206;16.402;2023-06-14T01:15:37;99420.34;;;14.69;74.96
13869;BME280;7004;48.206;16.402;2023-06-14T01:18:04;99427.91;;;14.73;74.39
13869;BME280;7004;48.206;16.402;2023-06-14T01:20:32;99419.81;;;14.75;74.24
13869;BME280;7004;48.206;16.402;2023-06-14T01:23:03;99412.72;;;14.85;74.50
13869;BME280;7004;48.206;16.402;2023-06-14T01:25:29;99415.41;;;14.64;75.25
13869;BME280;7004;48.206;16.402;2023-06-14T01:28:06;99415.16;;;14.67;74.25
13869;BME280;7004;48.206;16.402;2023-06-14T01:30:41;99415.28;;;14.87;73.84
13869;BME280;7004;48.206;16.402;2023-06-14T01:33:16;99410.59;;;15.10;73.33
13869;BME280;7004;48.206;16.402;2023-06-14T01:35:47;99414.41;;;15.17;73.40
13869;BME280;7004;48.206;16.402;2023-06-14T01:38:15;99409.00;;;15.28;72.10
13869;BME280;7004;48.206;16.402;2023-06-14T01:40:44;99405.16;;;15.11;72.66
13869;BME280;7004;48.206;16.402;2023-06-14T01:43:13;99407.19;;;15.38;70.90
13869;BME280;7004;48.206;16.402;2023-06-14T01:45:41;99409.69;;;15.30;71.74
13869;BME280;7004;48.206;16.402;2023-06-14T01:48:09;99410.03;;;15.46;71.16
13869;BME280;7004;48.206;16.402;2023-06-14T01:50:35;99415.25;;;15.58;71.15
13869;BME280;7004;48.206;16.402;2023-06-14T01:53:01;99409.63;;;15.61;69.15
13869;BME280;7004;48.206;16.402;2023-06-14T01:55:27;99407.97;;;15.60;68.96
13869;BME280;7004;48.206;16.402;2023-06-14T01:57:54;99405.97;;;15.42;68.93
13869;BME280;7004;48.206;16.402;2023-06-14T02:00:20;99399.22;;;15.48;70.00
13869;BME280;7004;48.206;16.402;2023-06-14T02:02:49;99395.88;;;15.56;70.14
13869;BME280;7004;48.206;16.402;2023-06-14T02:05:16;99405.38;;;15.69;70.22
13869;BME280;7004;48.206;16.402;2023-06-14T02:07:45;99394.44;;;15.72;70.79
13869;BME280;7004;48.206;16.402;2023-06-14T02:10:12;99395.97;;;15.94;70.48
13869;BME280;7004;48.206;16.402;2023-06-14T02:12:38;99400.75;;;15.91;69.32
13869;BME280;7004;48.206;16.402;2023-06-14T02:15:04;99403.53;;;15.89;67.62
13869;BME280;7004;48.206;16.402;2023-06-14T02:17:33;99403.78;;;15.67;68.65
13869;BME280;7004;48.206;16.402;2023-06-14T02:20:00;99406.53;;;16.06;66.60
13869;BME280;7004;48.206;16.402;2023-06-14T02:22:27;99415.19;;;15.79;67.53
13869;BME280;7004;48.206;16.402;2023-06-14T02:24:53;99410.13;;;15.95;67.39
13869;BME280;7004;48.206;16.402;2023-06-14T02:27:19;99402.00;;;15.87;67.07
13869;BME280;7004;48.206;16.402;2023-06-14T02:29:46;99405.22;;;15.81;69.19
13869;BME280;7004;48.206;16.402;2023-06-14T02:32:12;99415.47;;;15.76;70.51
13869;BME280;7004;48.206;16.402;2023-06-14T02:34:38;99405.75;;;15.75;70.13
13869;BME280;7004;48.206;16.402;2023-06-14T02:37:07;99411.00;;;15.86;69.56
13869;BME280;7004;48.206;16.402;2023-06-14T02:39:34;99418.22;;;15.64;70.00
13869;BME280;7004;48.206;16.402;2023-06-14T02:42:00;99418.06;;;15.66;70.47
13869;BME280;7004;48.206;16.402;2023-06-14T02:44:27;99418.91;;;15.66;70.65
13869;BME280;7004;48.206;16.402;2023-06-14T02:46:54;99423.94;;;15.60;70.39
13869;BME280;7004;48.206;16.402;2023-06-14T02:49:22;99419.16;;;15.44;71.71
13869;BME280;7004;48.206;16.402;2023-06-14T02:51:48;99422.13;;;15.60;71.79
13869;BME280;7004;48.206;16.402;2023-06-14T02:54:14;99420.56;;;15.58;72.03
13869;BME280;7004;48.206;16.402;2023-06-14T02:56:41;99418.47;;;15.51;72.83
13869;BME280;7004;48.206;16.402;2023-06-14T02:59:08;99427.50;;;15.29;73.90
13869;BME280;7004;48.206;16.402;2023-06-14T03:01:35;99428.25;;;15.41;73.21
13869;BME280;7004;48.206;16.402;2023-06-14T03:04:01;99430.44;;;15.26;73.50
13869;BME280;7004;48.206;16.402;2023-06-14T03:06:30;99430.44;;;15.26;73.61
13869;BME280;7004;48.206;16.402;2023-06-14T03:08:57;99429.22;;;15.10;74.65
13869;BME280;7004;48.206;16.402;2023-06-14T03:11:41;99427.44;;;15.10;74.35
13869;BME280;7004;48.206;16.402;2023-06-14T03:14:08;99428.88;;;15.24;73.63
13869;BME280;7004;48.206;16.402;2023-06-14T03:16:34;99434.00;;;15.46;72.97
13869;BME280;7004;48.206;16.402;2023-06-14T03:19:01;99436.63;;;15.37;72.96
13869;BME280;7004;48.206;16.402;2023-06-14T03:21:27;99433.53;;;15.32;73.31
13869;BME280;7004;48.206;16.402;2023-06-14T03:23:53;99437.09;;;15.42;72.93
13869;BME280;7004;48.206;16.402;2023-06-14T03:26:20;99439.53;;;15.24;73.78
13869;BME280;7004;48.206;16.402;2023-06-14T03:28:46;99443.13;;;14.82;76.70
13869;BME280;7004;48.206;16.402;2023-06-14T03:31:14;99442.16;;;14.30;79.10
13869;BME280;7004;48.206;16.402;2023-06-14T03:33:42;99443.66;;;14.55;77.98
13869;BME280;7004;48.206;16.402;2023-06-14T03:36:08;99444.63;;;15.06;74.41
13869;BME280;7004;48.206;16.402;2023-06-14T03:38:34;99450.22;;;15.34;72.42
13869;BME280;7004;48.206;16.402;2023-06-14T03:41:01;99450.94;;;15.05;73.39
13869;BME280;7004;48.206;16.402;2023-06-14T03:43:27;99457.44;;;14.91;75.94
13869;BME280;7004;48.206;16.402;2023-06-14T03:45:55;99455.06;;;15.19;75.18
13869;BME280;7004;48.206;16.402;2023-06-14T03:48:22;99465.66;;;15.09;75.50
13869;BME280;7004;48.206;16.402;2023-06-14T03:50:48;99471.13;;;14.66;78.39
13869;BME280;7004;48.206;16.402;2023-06-14T03:53:14;99474.00;;;14.95;77.78
13869;BME280;7004;48.206;16.402;2023-06-14T03:55:40;99476.84;;;15.03;77.03
13869;BME280;7004;48.206;16.402;2023-06-14T03:58:07;99484.94;;;15.01;77.41
13869;BME280;7004;48.206;16.402;2023-06-14T04:00:33;99488.91;;;15.07;76.81
13869;BME280;7004;48.206;16.402;2023-06-14T04:02:59;99490.47;;;15.40;75.46
13869;BME280;7004;48.206;16.402;2023-06-14T04:05:26;99499.78;;;15.25;76.31
13869;BME280;7004;48.206;16.402;2023-06-14T04:07:54;99501.09;;;15.10;77.07
13869;BME280;7004;48.206;16.402;2023-06-14T04:10:22;99497.06;;;14.84;78.92
13869;BME280;7004;48.206;16.402;2023-06-14T04:12:48;99499.81;;;14.83;78.90
13869;BME280;7004;48.206;16.402;2023-06-14T04:15:15;99498.00;;;15.25;78.51
13869;BME280;7004;48.206;16.402;2023-06-14T04:17:41;99499.06;;;15.54;76.22
13869;BME280;7004;48.206;16.402;2023-06-14T04:20:07;99501.16;;;15.50;76.33
13869;BME280;7004;48.206;16.402;2023-06-14T04:22:35;99501.59;;;15.55;75.55
13869;BME280;7004;48.206;16.402;2023-06-14T04:25:02;99508.56;;;15.77;73.90
13869;BME280;7004;48.206;16.402;2023-06-14T04:27:28;99506.38;;;15.92;74.21
13869;BME280;7004;48.206;16.402;2023-06-14T04:29:58;99500.06;;;15.83;74.94
13869;BME280;7004;48.206;16.402;2023-06-14T04:32:28;99499.25;;;16.02;74.17
13869;BME280;7004;48.206;16.402;2023-06-14T04:35:00;99502.47;;;15.96;74.84
13869;BME280;7004;48.206;16.402;2023-06-14T04:37:28;99510.66;;;16.14;71.03
13869;BME280;7004;48.206;16.402;2023-06-14T04:39:56;99512.53;;;15.83;72.76
13869;BME280;7004;48.206;16.402;2023-06-14T04:42:23;99513.97;;;15.97;73.00
13869;BME280;7004;48.206;16.402;2023-06-14T04:44:56;99512.44;;;16.13;75.10
13869;BME280;7004;48.206;16.402;2023-06-14T04:47:23;99511.22;;;16.27;76.00
13869;BME280;7004;48.206;16.402;2023-06-14T04:49:51;99512.91;;;16.48;74.36
13869;BME280;7004;48.206;16.402;2023-06-14T04:52:18;99515.00;;;16.15;72.91
13869;BME280;7004;48.206;16.402;2023-06-14T04:54:47;99520.66;;;16.60;71.95
13869;BME280;7004;48.206;16.402;2023-06-14T04:57:14;99519.78;;;16.60;73.11
13869;BME280;7004;48.206;16.402;2023-06-14T04:59:46;99525.84;;;16.43;73.93
13869;BME280;7004;48.206;16.402;2023-06-14T05:02:12;99527.63;;;16.23;68.17
13869;BME280;7004;48.206;16.402;2023-06-14T05:04:40;99527.09;;;16.48;69.24
13869;BME280;7004;48.206;16.402;2023-06-14T05:07:09;99520.78;;;16.98;67.21
13869;BME280;7004;48.206;16.402;2023-06-14T05:09:36;99525.28;;;16.97;67.02
13869;BME280;7004;48.206;16.402;2023-06-14T05:12:03;99515.31;;;16.80;64.39
13869;BME280;7004;48.206;16.402;2023-06-14T05:14:29;99523.69;;;17.14;63.17
13869;BME280;7004;48.206;16.402;2023-06-14T05:16:55;99518.09;;;17.08;64.08
13869;BME280;7004;48.206;16.402;2023-06-14T05:19:23;99517.63;;;17.22;64.13
13869;BME280;7004;48.206;16.402;2023-06-14T05:21:49;99519.56;;;17.30;64.96
13869;BME280;7004;48.206;16.402;2023-06-14T05:24:15;99524.78;;;17.31;65.26
13869;BME280;7004;48.206;16.402;2023-06-14T05:26:43;99523.44;;;17.45;64.39
13869;BME280;7004;48.206;16.402;2023-06-14T05:29:10;99523.44;;;17.45;62.03
13869;BME280;7004;48.206;16.402;2023-06-14T05:31:36;99524.38;;;17.63;62.75
13869;BME280;7004;48.206;16.402;2023-06-14T05:34:02;99525.91;;;17.66;62.53
13869;BME280;7004;48.206;16.402;2023-06-14T05:36:28;99528.22;;;17.88;60.46
13869;BME280;7004;48.206;16.402;2023-06-14T05:38:54;99534.41;;;17.89;59.65
13869;BME280;7004;48.206;16.402;2023-06-14T05:41:29;99532.47;;;18.09;58.72
13869;BME280;7004;48.206;16.402;2023-06-14T05:43:56;99530.28;;;18.22;59.45
13869;BME280;7004;48.206;16.402;2023-06-14T05:46:23;99529.53;;;18.30;57.77
13869;BME280;7004;48.206;16.402;2023-06-14T05:48:53;99538.25;;;18.86;58.60
13869;BME280;7004;48.206;16.402;2023-06-14T05:51:19;99538.00;;;18.43;57.06
13869;BME280;7004;48.206;16.402;2023-06-14T05:53:46;99543.50;;;18.60;58.72
13869;BME280;7004;48.206;16.402;2023-06-14T05:56:13;99537.63;;;18.56;58.72
13869;BME280;7004;48.206;16.402;2023-06-14T05:58:40;99551.97;;;18.19;56.08
13869;BME280;7004;48.206;16.402;2023-06-14T06:01:06;99550.50;;;18.52;55.50
13869;BME280;7004;48.206;16.402;2023-06-14T06:03:32;99547.06;;;18.78;56.28
13869;BME280;7004;48.206;16.402;2023-06-14T06:05:59;99555.63;;;19.26;56.87
13869;BME280;7004;48.206;16.402;2023-06-14T06:08:26;99549.97;;;18.85;55.95
13869;BME280;7004;48.206;16.402;2023-06-14T06:10:53;99553.00;;;19.34;55.97
13869;BME280;7004;48.206;16.402;2023-06-14T06:13:19;99549.50;;;18.89;55.95
13869;BME280;7004;48.206;16.402;2023-06-14T06:15:45;99550.28;;;18.82;54.80
13869;BME280;7004;48.206;16.402;2023-06-14T06:18:11;99556.13;;;19.03;55.25
13869;BME280;7004;48.206;16.402;2023-06-14T06:20:37;99557.28;;;18.65;55.00
13869;BME280;7004;48.206;16.402;2023-06-14T06:23:04;99558.13;;;18.83;55.27
13869;BME280;7004;48.206;16.402;2023-06-14T06:25:30;99558.09;;;19.19;54.33
13869;BME280;7004;48.206;16.402;2023-06-14T06:27:58;99557.59;;;20.10;53.95
13869;BME280;7004;48.206;16.402;2023-06-14T06:30:25;99559.31;;;20.27;54.67
13869;BME280;7004;48.206;16.402;2023-06-14T06:32:54;99564.19;;;20.24;51.30
13869;BME280;7004;48.206;16.402;2023-06-14T06:35:21;99555.22;;;20.99;51.29
13869;BME280;7004;48.206;16.402;2023-06-14T06:37:47;99573.03;;;19.74;51.06
13869;BME280;7004;48.206;16.402;2023-06-14T06:40:13;99568.59;;;19.64;52.03
13869;BME280;7004;48.206;16.402;2023-06-14T06:42:39;99566.69;;;20.25;51.34
13869;BME280;7004;48.206;16.402;2023-06-14T06:45:06;99563.31;;;20.90;49.88
13869;BME280;7004;48.206;16.402;2023-06-14T06:47:33;99577.19;;;19.42;51.44
13869;BME280;7004;48.206;16.402;2023-06-14T06:49:59;99572.31;;;19.98;50.67
13869;BME280;7004;48.206;16.402;2023-06-14T06:52:25;99566.50;;;21.10;48.30
13869;BME280;7004;48.206;16.402;2023-06-14T06:54:51;99570.03;;;21.27;48.84
13869;BME280;7004;48.206;16.402;2023-06-14T06:57:21;99558.53;;;21.66;48.00
13869;BME280;7004;48.206;16.402;2023-06-14T06:59:49;99566.97;;;22.02;47.73
13869;BME280;7004;48.206;16.402;2023-06-14T07:02:18;99573.03;;;21.16;47.60
13869;BME280;7004;48.206;16.402;2023-06-14T07:04:44;99561.13;;;21.02;47.59
13869;BME280;7004;48.206;16.402;2023-06-14T07:07:10;99558.50;;;22.22;45.49
13869;BME280;7004;48.206;16.402;2023-06-14T07:09:37;99566.66;;;21.17;46.49
13869;BME280;7004;48.206;16.402;2023-06-14T07:12:03;99563.19;;;22.51;44.90
13869;BME280;7004;48.206;16.402;2023-06-14T07:14:29;99569.19;;;21.43;46.56
13869;BME280;7004;48.206;16.402;2023-06-14T07:16:56;99566.88;;;22.27;45.54
13869;BME280;7004;48.206;16.402;2023-06-14T07:19:22;99565.53;;;22.31;44.54
13869;BME280;7004;48.206;16.402;2023-06-14T07:21:48;99557.22;;;22.87;44.37
13869;BME280;7004;48.206;16.402;2023-06-14T07:24:14;99569.63;;;23.34;43.60
13869;BME280;7004;48.206;16.402;2023-06-14T07:26:41;99578.69;;;22.26;44.17
13869;BME280;7004;48.206;16.402;2023-06-14T07:29:07;99575.25;;;22.63;43.78
13869;BME280;7004;48.206;16.402;2023-06-14T07:31:33;99576.75;;;22.66;44.41
13869;BME280;7004;48.206;16.402;2023-06-14T07:33:59;99574.03;;;23.65;42.12
13869;BME280;7004;48.206;16.402;2023-06-14T07:36:26;99578.72;;;23.86;41.01
13869;BME280;7004;48.206;16.402;2023-06-14T07:38:52;99569.69;;;24.08;40.29
13869;BME280;7004;48.206;16.402;2023-06-14T07:41:18;99572.28;;;24.02;41.44
13869;BME280;7004;48.206;16.402;2023-06-14T07:43:45;99576.47;;;24.04;41.94
13869;BME280;7004;48.206;16.402;2023-06-14T07:46:11;99575.09;;;23.79;41.81
13869;BME280;7004;48.206;16.402;2023-06-14T07:48:37;99576.16;;;22.24;42.88
13869;BME280;7004;48.206;16.402;2023-06-14T07:51:03;99585.47;;;22.45;43.94
13869;BME280;7004;48.206;16.402;2023-06-14T07:53:29;99591.50;;;21.60;44.37
13869;BME280;7004;48.206;16.402;2023-06-14T07:55:56;99580.41;;;22.73;43.19
13869;BME280;7004;48.206;16.402;2023-06-14T07:58:23;99587.44;;;22.12;43.96
13869;BME280;7004;48.206;16.402;2023-06-14T08:00:49;99584.34;;;21.84;44.79
13869;BME280;7004;48.206;16.402;2023-06-14T08:03:15;99587.06;;;22.31;44.18
13869;BME280;7004;48.206;16.402;2023-06-14T08:05:41;99587.59;;;22.27;44.34
13869;BME280;7004;48.206;16.402;2023-06-14T08:08:07;99585.69;;;23.13;43.74
13869;BME280;7004;48.206;16.402;2023-06-14T08:10:33;99583.00;;;23.95;40.16
13869;BME280;7004;48.206;16.402;2023-06-14T08:12:59;99587.66;;;23.71;40.92
13869;BME280;7004;48.206;16.402;2023-06-14T08:15:26;99585.22;;;24.21;39.82
13869;BME280;7004;48.206;16.402;2023-06-14T08:17:52;99584.81;;;23.35;40.50
13869;BME280;7004;48.206;16.402;2023-06-14T08:20:18;99581.66;;;24.72;40.17
13869;BME280;7004;48.206;16.402;2023-06-14T08:22:44;99598.19;;;24.11;39.86
13869;BME280;7004;48.206;16.402;2023-06-14T08:25:12;99598.28;;;23.88;41.72
13869;BME280;7004;48.206;16.402;2023-06-14T08:27:38;99588.06;;;23.30;40.45
13869;BME280;7004;48.206;16.402;2023-06-14T08:30:04;99588.97;;;24.56;40.92
13869;BME280;7004;48.206;16.402;2023-06-14T08:32:31;99597.50;;;24.09;39.68
13869;BME280;7004;48.206;16.402;2023-06-14T08:34:57;99589.69;;;24.29;38.67
13869;BME280;7004;48.206;16.402;2023-06-14T08:37:23;99600.50;;;23.99;39.60
13869;BME280;7004;48.206;16.402;2023-06-14T08:39:49;99606.34;;;23.58;39.99
13869;BME280;7004;48.206;16.402;2023-06-14T08:42:18;99602.56;;;23.82;40.63
13869;BME280;7004;48.206;16.402;2023-06-14T08:44:44;99599.03;;;24.62;40.27
13869;BME280;7004;48.206;16.402;2023-06-14T08:47:10;99605.28;;;23.44;40.81
13869;BME280;7004;48.206;16.402;2023-06-14T08:49:38;99600.53;;;23.46;39.62
13869;BME280;7004;48.206;16.402;2023-06-14T08:52:08;99601.72;;;23.82;40.30
13869;BME280;7004;48.206;16.402;2023-06-14T08:54:36;99603.59;;;22.51;43.61
13869;BME280;7004;48.206;16.402;2023-06-14T08:57:11;99604.34;;;22.68;42.13
13869;BME280;7004;48.206;16.402;2023-06-14T08:59:50;99599.03;;;22.83;42.63
13869;BME280;7004;48.206;16.402;2023-06-14T09:02:19;99600.50;;;23.17;42.67
13869;BME280;7004;48.206;16.402;2023-06-14T09:04:45;99600.97;;;23.88;41.67
13869;BME280;7004;48.206;16.402;2023-06-14T09:07:12;99600.81;;;23.14;43.50
13869;BME280;7004;48.206;16.402;2023-06-14T09:09:39;99599.00;;;23.29;42.82
13869;BME280;7004;48.206;16.402;2023-06-14T09:12:11;99602.28;;;23.77;42.05
13869;BME280;7004;48.206;16.402;2023-06-14T09:14:38;99601.06;;;23.80;38.80
13869;BME280;7004;48.206;16.402;2023-06-14T09:17:06;99598.63;;;24.87;39.19
13869;BME280;7004;48.206;16.402;2023-06-14T09:19:34;99596.56;;;25.11;38.08
13869;BME280;7004;48.206;16.402;2023-06-14T09:22:04;99600.78;;;25.98;37.90
13869;BME280;7004;48.206;16.402;2023-06-14T09:24:30;99600.97;;;25.61;37.33
13869;BME280;7004;48.206;16.402;2023-06-14T09:26:56;99596.28;;;24.99;37.78
13869;BME280;7004;48.206;16.402;2023-06-14T09:29:23;99603.53;;;24.77;38.79
13869;BME280;7004;48.206;16.402;2023-06-14T09:31:51;99591.44;;;25.37;37.17
13869;BME280;7004;48.206;16.402;2023-06-14T09:34:17;99589.72;;;25.92;35.41
13869;BME280;7004;48.206;16.402;2023-06-14T09:36:46;99587.88;;;25.37;36.72
13869;BME280;7004;48.206;16.402;2023-06-14T09:39:17;99587.38;;;25.05;38.44
13869;BME280;7004;48.206;16.402;2023-06-14T09:41:46;99591.78;;;24.48;37.64
13869;BME280;7004;48.206;16.402;2023-06-14T09:44:15;99585.84;;;26.56;35.88
13869;BME280;7004;48.206;16.402;2023-06-14T09:46:42;99595.56;;;25.33;39.25
13869;BME280;7004;48.206;16.402;2023-06-14T09:49:09;99592.38;;;25.86;38.21
13869;BME280;7004;48.206;16.402;2023-06-14T09:51:45;99599.00;;;25.48;34.90
13869;BME280;7004;48.206;16.402;2023-06-14T09:54:16;99594.13;;;24.94;35.71
13869;BME280;7004;48.206;16.402;2023-06-14T09:56:45;99585.34;;;25.14;35.94
13869;BME280;7004;48.206;16.402;2023-06-14T09:59:13;99580.94;;;26.32;35.62
13869;BME280;7004;48.206;16.402;2023-06-14T10:01:43;99583.28;;;26.42;35.85
13869;BME280;7004;48.206;16.402;2023-06-14T10:04:10;99584.47;;;27.34;33.99
13869;BME280;7004;48.206;16.402;2023-06-14T10:06:39;99586.16;;;26.40;36.80
13869;BME280;7004;48.206;16.402;2023-06-14T10:09:09;99584.66;;;26.18;39.31
13869;BME280;7004;48.206;16.402;2023-06-14T10:11:36;99590.50;;;25.08;38.60
13869;BME280;7004;48.206;16.402;2023-06-14T10:14:05;99583.75;;;25.41;37.04
13869;BME280;7004;48.206;16.402;2023-06-14T10:16:41;99584.56;;;25.41;39.26
13869;BME280;7004;48.206;16.402;2023-06-14T10:22:14;99578.38;;;26.17;36.53
13869;BME280;7004;48.206;16.402;2023-06-14T10:24:44;99581.94;;;25.48;36.72
13869;BME280;7004;48.206;16.402;2023-06-14T10:27:13;99581.38;;;24.30;36.39
13869;BME280;7004;48.206;16.402;2023-06-14T10:32:25;99574.63;;;24.77;36.80
13869;BME280;7004;48.206;16.402;2023-06-14T10:34:59;99581.41;;;24.01;36.89
13869;BME280;7004;48.206;16.402;2023-06-14T10:37:26;99589.69;;;24.29;39.36
13869;BME280;7004;48.206;16.402;2023-06-14T10:39:52;99580.53;;;24.45;38.78
13869;BME280;7004;48.206;16.402;2023-06-14T10:42:21;99568.25;;;24.85;37.23
13869;BME280;7004;48.206;16.402;2023-06-14T10:44:55;99573.59;;;25.49;38.63
13869;BME280;7004;48.206;16.402;2023-06-14T10:47:26;99566.28;;;24.94;36.45
13869;BME280;7004;48.206;16.402;2023-06-14T10:50:11;99566.44;;;25.14;39.24
13869;BME280;7004;48.206;16.402;2023-06-14T10:52:42;99573.13;;;24.38;37.50
13869;BME280;7004;48.206;16.402;2023-06-14T10:55:17;99572.97;;;24.40;34.99
13869;BME280;7004;48.206;16.402;2023-06-14T11:00:24;99577.78;;;24.08;37.79
13869;BME280;7004;48.206;16.402;2023-06-14T11:11:08;99564.47;;;25.50;33.77
13869;BME280;7004;48.206;16.402;2023-06-14T11:13:39;99560.63;;;25.73;31.97
13869;BME280;7004;48.206;16.402;2023-06-14T11:16:14;99557.09;;;26.69;32.57
13869;BME280;7004;48.206;16.402;2023-06-14T11:18:42;99552.38;;;27.24;33.47
13869;BME280;7004;48.206;16.402;2023-06-14T11:21:08;99561.63;;;25.31;34.94
13869;BME280;7004;48.206;16.402;2023-06-14T11:23:35;99550.97;;;26.47;34.08
13869;BME280;7004;48.206;16.402;2023-06-14T11:26:02;99545.91;;;25.82;32.89
13869;BME280;7004;48.206;16.402;2023-06-14T11:28:38;99548.81;;;25.18;33.41
13869;BME280;7004;48.206;16.402;2023-06-14T11:31:04;99553.28;;;25.95;35.64
13869;BME280;7004;48.206;16.402;2023-06-14T11:33:31;99549.28;;;26.39;34.13
13869;BME280;7004;48.206;16.402;2023-06-14T11:35:57;99551.19;;;25.56;34.94
13869;BME280;7004;48.206;16.402;2023-06-14T11:38:25;99562.28;;;26.09;33.03
13869;BME280;7004;48.206;16.402;2023-06-14T11:40:51;99548.94;;;26.01;33.18
13869;BME280;7004;48.206;16.402;2023-06-14T11:43:17;99550.81;;;25.09;35.25
13869;BME280;7004;48.206;16.402;2023-06-14T11:45:48;99553.44;;;25.02;35.68
13869;BME280;7004;48.206;16.402;2023-06-14T11:48:15;99561.59;;;23.93;35.92
13869;BME280;7004;48.206;16.402;2023-06-14T11:50:41;99553.47;;;24.23;37.21
13869;BME280;7004;48.206;16.402;2023-06-14T11:53:07;99553.22;;;24.39;36.43
13869;BME280;7004;48.206;16.402;2023-06-14T11:55:37;99556.19;;;23.49;37.67
13869;BME280;7004;48.206;16.402;2023-06-14T11:58:05;99538.84;;;24.54;36.95
13869;BME280;7004;48.206;16.402;2023-06-14T12:00:31;99547.44;;;24.42;38.81
13869;BME280;7004;48.206;16.402;2023-06-14T12:02:57;99540.84;;;24.67;38.13
13869;BME280;7004;48.206;16.402;2023-06-14T12:05:25;99536.53;;;24.51;37.42
13869;BME280;7004;48.206;16.402;2023-06-14T12:08:02;99538.00;;;24.53;32.92
13869;BME280;7004;48.206;16.402;2023-06-14T12:10:30;99532.72;;;25.72;35.08
13869;BME280;7004;48.206;16.402;2023-06-14T12:13:06;99522.69;;;25.95;32.60
13869;BME280;7004;48.206;16.402;2023-06-14T12:15:32;99526.06;;;25.75;31.89
13869;BME280;7004;48.206;16.402;2023-06-14T12:17:58;99520.19;;;26.00;31.75
13869;BME280;7004;48.206;16.402;2023-06-14T12:20:30;99515.56;;;25.87;32.28
13869;BME280;7004;48.206;16.402;2023-06-14T12:23:03;99519.66;;;26.37;31.94
13869;BME280;7004;48.206;16.402;2023-06-14T12:25:35;99522.88;;;27.34;31.78
13869;BME280;7004;48.206;16.402;2023-06-14T12:28:09;99525.59;;;25.58;30.99
13869;BME280;7004;48.206;16.402;2023-06-14T12:30:37;99521.78;;;25.53;30.47
13869;BME280;7004;48.206;16.402;2023-06-14T12:33:04;99528.31;;;26.00;31.85
13869;BME280;7004;48.206;16.402;2023-06-14T12:35:31;99523.53;;;25.67;34.29
13869;BME280;7004;48.206;16.402;2023-06-14T12:37:57;99528.31;;;25.08;36.55
13869;BME280;7004;48.206;16.402;2023-06-14T12:40:24;99528.66;;;25.48;35.72
13869;BME280;7004;48.206;16.402;2023-06-14T12:42:50;99524.81;;;25.36;35.29
13869;BME280;7004;48.206;16.402;2023-06-14T12:45:16;99528.44;;;24.51;37.68
13869;BME280;7004;48.206;16.402;2023-06-14T12:47:42;99521.22;;;24.58;38.67
13869;BME280;7004;48.206;16.402;2023-06-14T12:50:10;99524.16;;;25.06;37.35
13869;BME280;7004;48.206;16.402;2023-06-14T12:52:38;99528.16;;;24.09;36.86
13869;BME280;7004;48.206;16.402;2023-06-14T12:55:05;99521.81;;;24.53;35.29
13869;BME280;7004;48.206;16.402;2023-06-14T12:57:56;99522.44;;;24.77;35.85
13869;BME280;7004;48.206;16.402;2023-06-14T13:00:22;99523.56;;;24.25;34.70
13869;BME280;7004;48.206;16.402;2023-06-14T13:02:48;99528.38;;;23.93;37.58
13869;BME280;7004;48.206;16.402;2023-06-14T13:05:15;99521.66;;;24.04;36.95
13869;BME280;7004;48.206;16.402;2023-06-14T13:07:41;99521.22;;;23.85;36.30
13869;BME280;7004;48.206;16.402;2023-06-14T13:10:07;99527.13;;;24.10;36.52
13869;BME280;7004;48.206;16.402;2023-06-14T13:12:33;99530.84;;;24.09;36.69
13869;BME280;7004;48.206;16.402;2023-06-14T13:14:59;99522.09;;;24.07;36.76
13869;BME280;7004;48.206;16.402;2023-06-14T13:17:26;99523.31;;;24.05;36.72
13869;BME280;7004;48.206;16.402;2023-06-14T13:19:52;99524.88;;;24.14;37.07
13869;BME280;7004;48.206;16.402;2023-06-14T13:22:18;99524.66;;;23.64;36.93
13869;BME280;7004;48.206;16.402;2023-06-14T13:24:45;99520.19;;;24.23;36.74
13869;BME280;7004;48.206;16.402;2023-06-14T13:27:11;99525.69;;;23.78;36.61